sensor_id;sensor_type;location;lat;lon;timestamp;P1;durP1;ratioP1;P2;durP2;ratioP2
50086;SDS011;35967;50.718;7.050;2022-08-19T00:00:30;9.98;;;6.43;;
50086;SDS011;35967;50.718;7.050;2022-08-19T00:10:32;9.25;;;6.78;;
50086;SDS011;35967;50.718;7.050;2022-08-19T00:20:35;8.70;;;7.60;;
50086;SDS011;35967;50.718;7.050;2022-08-19T00:30:40;12.80;;;8.37;;
50086;SDS011;35967;50.718;7.050;2022-08-19T00:40:43;12.53;;;6.97;;
50086;SDS011;35967;50.718;7.050;2022-08-19T00:50:49;9.70;;;6.90;;
50086;SDS011;35967;50.718;7.050;2022-08-19T01:00:54;9.67;;;7.30;;
50086;SDS011;35967;50.718;7.050;2022-08-19T01:10:58;12.00;;;8.03;;
50086;SDS011;35967;50.718;7.050;2022-08-19T01:21:02;13.97;;;9.57;;
50086;SDS011;35967;50.718;7.050;2022-08-19T01:31:13;13.53;;;8.70;;
50086;SDS011;35967;50.718;7.050;2022-08-19T01:41:28;12.83;;;9.50;;
50086;SDS011;35967;50.718;7.050;2022-08-19T01:51:30;14.23;;;9.30;;
50086;SDS011;35967;50.718;7.050;2022-08-19T02:01:40;12.57;;;10.97;;
50086;SDS011;35967;50.718;7.050;2022-08-19T02:11:42;14.20;;;10.27;;
50086;SDS011;35967;50.718;7.050;2022-08-19T02:21:45;14.10;;;11.53;;
50086;SDS011;35967;50.718;7.050;2022-08-19T02:31:47;13.60;;;11.00;;
50086;SDS011;35967;50.718;7.050;2022-08-19T02:41:50;15.23;;;11.87;;
50086;SDS011;35967;50.718;7.050;2022-08-19T02:51:53;16.13;;;13.17;;
50086;SDS011;35967;50.718;7.050;2022-08-19T03:01:56;16.03;;;12.93;;
50086;SDS011;35967;50.718;7.050;2022-08-19T03:11:58;15.63;;;12.53;;
50086;SDS011;35967;50.718;7.050;2022-08-19T03:22:00;17.27;;;15.00;;
50086;SDS011;35967;50.718;7.050;2022-08-19T03:32:04;21.47;;;15.13;;
50086;SDS011;35967;50.718;7.050;2022-08-19T03:42:07;17.20;;;15.17;;
50086;SDS011;35967;50.718;7.050;2022-08-19T03:52:29;20.60;;;14.53;;
50086;SDS011;35967;50.718;7.050;2022-08-19T04:02:31;20.87;;;17.07;;
50086;SDS011;35967;50.718;7.050;2022-08-19T04:12:33;18.87;;;15.33;;
50086;SDS011;35967;50.718;7.050;2022-08-19T04:22:35;21.37;;;17.77;;
50086;SDS011;35967;50.718;7.050;2022-08-19T04:32:37;24.40;;;19.80;;
50086;SDS011;35967;50.718;7.050;2022-08-19T04:42:40;25.40;;;20.67;;
50086;SDS011;35967;50.718;7.050;2022-08-19T04:52:42;23.17;;;19.10;;
50086;SDS011;35967;50.718;7.050;2022-08-19T05:02:44;25.90;;;19.90;;
50086;SDS011;35967;50.718;7.050;2022-08-19T05:12:46;29.90;;;23.43;;
50086;SDS011;35967;50.718;7.050;2022-08-19T05:23:05;29.87;;;21.80;;
50086;SDS011;35967;50.718;7.050;2022-08-19T05:33:18;34.83;;;25.73;;
50086;SDS011;35967;50.718;7.050;2022-08-19T05:43:20;32.10;;;23.07;;
50086;SDS011;35967;50.718;7.050;2022-08-19T05:53:22;27.17;;;18.10;;
50086;SDS011;35967;50.718;7.050;2022-08-19T06:03:24;29.60;;;22.93;;
50086;SDS011;35967;50.718;7.050;2022-08-19T06:13:26;33.20;;;24.63;;
50086;SDS011;35967;50.718;7.050;2022-08-19T06:23:33;33.27;;;24.53;;
50086;SDS011;35967;50.718;7.050;2022-08-19T06:33:36;30.73;;;24.13;;
50086;SDS011;35967;50.718;7.050;2022-08-19T06:43:39;33.20;;;25.03;;
50086;SDS011;35967;50.718;7.050;2022-08-19T06:53:45;34.05;;;23.30;;
50086;SDS011;35967;50.718;7.050;2022-08-19T07:03:49;37.70;;;28.55;;
50086;SDS011;35967;50.718;7.050;2022-08-19T07:14:05;27.63;;;20.33;;
50086;SDS011;35967;50.718;7.050;2022-08-19T07:24:21;32.95;;;23.10;;
50086;SDS011;35967;50.718;7.050;2022-08-19T07:34:26;31.17;;;22.13;;
50086;SDS011;35967;50.718;7.050;2022-08-19T07:44:29;28.95;;;20.58;;
50086;SDS011;35967;50.718;7.050;2022-08-19T07:54:32;48.30;;;29.92;;
50086;SDS011;35967;50.718;7.050;2022-08-19T08:04:36;26.08;;;16.23;;
50086;SDS011;35967;50.718;7.050;2022-08-19T08:14:58;22.98;;;14.10;;
50086;SDS011;35967;50.718;7.050;2022-08-19T08:25:13;16.58;;;12.20;;
50086;SDS011;35967;50.718;7.050;2022-08-19T08:35:19;18.80;;;13.00;;
50086;SDS011;35967;50.718;7.050;2022-08-19T08:45:22;27.80;;;15.88;;
50086;SDS011;35967;50.718;7.050;2022-08-19T08:55:27;28.77;;;17.98;;
50086;SDS011;35967;50.718;7.050;2022-08-19T09:16:03;31.58;;;21.25;;
50086;SDS011;35967;50.718;7.050;2022-08-19T09:26:13;28.70;;;20.23;;
50086;SDS011;35967;50.718;7.050;2022-08-19T09:36:20;27.55;;;19.42;;
50086;SDS011;35967;50.718;7.050;2022-08-19T09:46:35;25.33;;;14.73;;
50086;SDS011;35967;50.718;7.050;2022-08-19T09:56:37;25.38;;;16.67;;
50086;SDS011;35967;50.718;7.050;2022-08-19T10:06:42;16.67;;;11.83;;
50086;SDS011;35967;50.718;7.050;2022-08-19T10:16:47;16.77;;;11.17;;
50086;SDS011;35967;50.718;7.050;2022-08-19T10:26:49;11.95;;;9.55;;
50086;SDS011;35967;50.718;7.050;2022-08-19T10:36:59;12.20;;;8.88;;
50086;SDS011;35967;50.718;7.050;2022-08-19T10:47:11;12.20;;;8.80;;
50086;SDS011;35967;50.718;7.050;2022-08-19T10:57:30;9.88;;;7.20;;
50086;SDS011;35967;50.718;7.050;2022-08-19T11:07:52;9.00;;;5.57;;
50086;SDS011;35967;50.718;7.050;2022-08-19T11:17:54;13.20;;;9.02;;
50086;SDS011;35967;50.718;7.050;2022-08-19T11:27:57;9.63;;;6.68;;
50086;SDS011;35967;50.718;7.050;2022-08-19T11:37:59;13.45;;;6.25;;
50086;SDS011;35967;50.718;7.050;2022-08-19T11:48:08;13.02;;;6.60;;
50086;SDS011;35967;50.718;7.050;2022-08-19T11:58:11;10.68;;;7.07;;
50086;SDS011;35967;50.718;7.050;2022-08-19T12:08:19;11.25;;;7.05;;
50086;SDS011;35967;50.718;7.050;2022-08-19T12:18:21;14.75;;;7.78;;
50086;SDS011;35967;50.718;7.050;2022-08-19T12:38:28;14.00;;;11.27;;
50086;SDS011;35967;50.718;7.050;2022-08-19T12:48:31;13.13;;;9.77;;
50086;SDS011;35967;50.718;7.050;2022-08-19T13:08:39;10.35;;;8.48;;
50086;SDS011;35967;50.718;7.050;2022-08-19T13:18:41;8.18;;;6.40;;
50086;SDS011;35967;50.718;7.050;2022-08-19T13:28:44;10.47;;;7.70;;
50086;SDS011;35967;50.718;7.050;2022-08-19T13:39:06;8.15;;;6.15;;
50086;SDS011;35967;50.718;7.050;2022-08-19T13:49:09;8.47;;;5.40;;
50086;SDS011;35967;50.718;7.050;2022-08-19T14:09:16;8.95;;;5.70;;
50086;SDS011;35967;50.718;7.050;2022-08-19T14:19:18;8.93;;;6.55;;
50086;SDS011;35967;50.718;7.050;2022-08-19T14:29:21;14.82;;;5.78;;
50086;SDS011;35967;50.718;7.050;2022-08-19T14:39:23;10.05;;;5.97;;
50086;SDS011;35967;50.718;7.050;2022-08-19T14:49:25;12.60;;;5.82;;
50086;SDS011;35967;50.718;7.050;2022-08-19T14:59:36;10.85;;;6.85;;
50086;SDS011;35967;50.718;7.050;2022-08-19T15:09:38;9.23;;;4.90;;
50086;SDS011;35967;50.718;7.050;2022-08-19T15:19:40;8.27;;;3.30;;
50086;SDS011;35967;50.718;7.050;2022-08-19T15:29:42;9.73;;;2.00;;
50086;SDS011;35967;50.718;7.050;2022-08-19T15:39:47;4.33;;;1.30;;
50086;SDS011;35967;50.718;7.050;2022-08-19T15:49:49;4.13;;;1.40;;
50086;SDS011;35967;50.718;7.050;2022-08-19T15:59:51;3.63;;;1.38;;
50086;SDS011;35967;50.718;7.050;2022-08-19T16:10:12;7.63;;;1.10;;
50086;SDS011;35967;50.718;7.050;2022-08-19T16:20:28;3.13;;;1.20;;
50086;SDS011;35967;50.718;7.050;2022-08-19T16:30:31;3.20;;;1.20;;
50086;SDS011;35967;50.718;7.050;2022-08-19T16:40:33;4.65;;;1.50;;
50086;SDS011;35967;50.718;7.050;2022-08-19T16:50:36;3.20;;;0.98;;
50086;SDS011;35967;50.718;7.050;2022-08-19T17:00:53;2.78;;;0.80;;
50086;SDS011;35967;50.718;7.050;2022-08-19T17:11:04;5.53;;;1.20;;
50086;SDS011;35967;50.718;7.050;2022-08-19T17:21:23;2.47;;;0.97;;
50086;SDS011;35967;50.718;7.050;2022-08-19T17:31:29;3.10;;;1.02;;
50086;SDS011;35967;50.718;7.050;2022-08-19T17:41:32;1.88;;;0.90;;
50086;SDS011;35967;50.718;7.050;2022-08-19T18:01:43;3.38;;;1.40;;
50086;SDS011;35967;50.718;7.050;2022-08-19T18:11:55;2.03;;;0.90;;
50086;SDS011;35967;50.718;7.050;2022-08-19T18:21:57;3.05;;;1.08;;
50086;SDS011;35967;50.718;7.050;2022-08-19T18:31:59;3.05;;;1.10;;
50086;SDS011;35967;50.718;7.050;2022-08-19T18:42:02;4.00;;;1.63;;
50086;SDS011;35967;50.718;7.050;2022-08-19T18:52:22;3.40;;;1.00;;
50086;SDS011;35967;50.718;7.050;2022-08-19T19:02:26;6.30;;;1.10;;
50086;SDS011;35967;50.718;7.050;2022-08-19T19:12:28;7.00;;;0.90;;
50086;SDS011;35967;50.718;7.050;2022-08-19T19:22:30;3.70;;;0.85;;
50086;SDS011;35967;50.718;7.050;2022-08-19T19:32:32;3.47;;;0.98;;
50086;SDS011;35967;50.718;7.050;2022-08-19T19:42:39;2.15;;;0.82;;
50086;SDS011;35967;50.718;7.050;2022-08-19T19:52:43;3.83;;;0.90;;
50086;SDS011;35967;50.718;7.050;2022-08-19T20:02:47;5.00;;;1.20;;
50086;SDS011;35967;50.718;7.050;2022-08-19T20:12:51;3.23;;;1.00;;
50086;SDS011;35967;50.718;7.050;2022-08-19T20:22:55;2.38;;;1.00;;
50086;SDS011;35967;50.718;7.050;2022-08-19T20:32:57;3.35;;;1.52;;
50086;SDS011;35967;50.718;7.050;2022-08-19T20:43:10;2.00;;;1.00;;
50086;SDS011;35967;50.718;7.050;2022-08-19T20:53:24;1.17;;;0.60;;
50086;SDS011;35967;50.718;7.050;2022-08-19T21:03:33;1.40;;;0.57;;
50086;SDS011;35967;50.718;7.050;2022-08-19T21:14:08;1.45;;;0.68;;
50086;SDS011;35967;50.718;7.050;2022-08-19T21:24:17;2.33;;;1.20;;
50086;SDS011;35967;50.718;7.050;2022-08-19T21:34:30;0.90;;;0.60;;
50086;SDS011;35967;50.718;7.050;2022-08-19T21:44:32;1.63;;;0.65;;
50086;SDS011;35967;50.718;7.050;2022-08-19T21:54:38;3.13;;;0.70;;
50086;SDS011;35967;50.718;7.050;2022-08-19T22:04:40;0.70;;;0.40;;
50086;SDS011;35967;50.718;7.050;2022-08-19T22:14:42;3.70;;;0.40;;
50086;SDS011;35967;50.718;7.050;2022-08-19T22:24:44;2.17;;;0.50;;
50086;SDS011;35967;50.718;7.050;2022-08-19T22:34:47;1.30;;;0.52;;
50086;SDS011;35967;50.718;7.050;2022-08-19T22:44:49;4.53;;;0.55;;
50086;SDS011;35967;50.718;7.050;2022-08-19T22:54:54;1.05;;;0.50;;
50086;SDS011;35967;50.718;7.050;2022-08-19T23:05:08;2.30;;;0.65;;
50086;SDS011;35967;50.718;7.050;2022-08-19T23:15:19;1.45;;;0.65;;
50086;SDS011;35967;50.718;7.050;2022-08-19T23:25:26;0.93;;;0.40;;
50086;SDS011;35967;50.718;7.050;2022-08-19T23:35:32;1.25;;;0.65;;
50086;SDS011;35967;50.718;7.050;2022-08-19T23:45:45;1.73;;;0.80;;
50086;SDS011;35967;50.718;7.050;2022-08-19T23:55:51;1.42;;;0.60;;
